Time;durP1;ratioP1;P1;durP2;ratioP2;P2;SDS_P1;SDS_P2;PMS_P1;PMS_P2;Temp;Humidity;BMP_temperature;BMP_pressure;BME280_temperature;BME280_humidity;BME280_pressure;Samples;Min_cycle;Max_cycle;Signal;HPM_P1;HPM_P2
2024/03/29 00:00:19;;;;;;;5.35;1.17;;;;;;;8.93;100.00;98791.03;10457278;28;20032;-70
2024/03/29 00:05:19;;;;;;;4.15;1.65;;;;;;;8.94;100.00;98789.19;10454855;28;20036;-72
2024/03/29 00:10:20;;;;;;;9.20;2.17;;;;;;;8.94;100.00;98791.88;10456462;28;20029;-73
2024/03/29 00:15:20;;;;;;;8.82;3.95;;;;;;;9.00;100.00;98791.75;10456965;28;20045;-74
2024/03/29 00:20:21;;;;;;;5.03;1.17;;;;;;;8.92;100.00;98785.91;10438230;28;20064;-72
2024/03/29 00:25:21;;;;;;;1.58;1.48;;;;;;;8.91;100.00;98798.59;10456542;28;20033;-74
2024/03/29 00:30:22;;;;;;;3.97;2.08;;;;;;;9.05;100.00;98809.91;10456226;28;20033;-73
2024/03/29 00:35:23;;;;;;;7.47;2.83;;;;;;;9.03;100.00;98802.06;10456297;28;20036;-75
2024/03/29 00:40:23;;;;;;;4.28;2.17;;;;;;;8.99;100.00;98809.00;10454896;28;20486;-72
2024/03/29 00:45:23;;;;;;;5.43;2.42;;;;;;;9.02;100.00;98811.22;10455805;28;20083;-73
2024/03/29 00:50:24;;;;;;;6.72;2.33;;;;;;;8.94;100.00;98802.69;10455958;28;20029;-74
2024/03/29 00:55:24;;;;;;;4.97;2.28;;;;;;;9.03;100.00;98815.56;10456287;28;20349;-74
2024/03/29 01:00:24;;;;;;;18.77;2.20;;;;;;;8.99;100.00;98830.59;10459677;28;20071;-73
2024/03/29 01:05:25;;;;;;;8.60;2.47;;;;;;;9.13;100.00;98811.44;10460263;28;20348;-72
2024/03/29 01:10:25;;;;;;;4.68;1.70;;;;;;;9.16;100.00;98817.19;10457516;28;20096;-73
2024/03/29 01:15:26;;;;;;;6.90;1.55;;;;;;;9.27;100.00;98805.50;10462855;28;20049;-72
2024/03/29 01:20:26;;;;;;;6.80;1.48;;;;;;;9.30;100.00;98815.84;10480048;28;20037;-73
2024/03/29 01:25:27;;;;;;;7.38;1.45;;;;;;;9.30;100.00;98821.25;10477473;28;20029;-70
2024/03/29 01:30:27;;;;;;;1.77;1.67;;;;;;;9.31;100.00;98813.94;10489658;28;20017;-74
2024/03/29 01:35:28;;;;;;;4.95;3.10;;;;;;;9.37;100.00;98822.97;10456890;28;20055;-74
2024/03/29 01:40:28;;;;;;;5.47;1.42;;;;;;;9.30;100.00;98798.81;10473649;28;20025;-73
2024/03/29 01:45:29;;;;;;;9.30;2.78;;;;;;;9.36;100.00;98813.25;10468740;28;20064;-74
2024/03/29 01:50:30;;;;;;;6.45;1.88;;;;;;;9.24;100.00;98806.00;10465481;28;20364;-71
2024/03/29 01:55:30;;;;;;;6.80;2.15;;;;;;;9.21;100.00;98811.88;10472882;28;20037;-72
2024/03/29 02:00:30;;;;;;;12.02;1.67;;;;;;;9.04;100.00;98803.72;10469876;28;20052;-71
2024/03/29 02:05:31;;;;;;;2.97;2.03;;;;;;;9.06;100.00;98800.75;10468099;28;20326;-71
2024/03/29 02:10:31;;;;;;;7.68;1.85;;;;;;;9.17;100.00;98796.41;10468522;28;20032;-73
2024/03/29 02:15:31;;;;;;;6.05;2.08;;;;;;;9.15;100.00;98812.00;10464571;28;20507;-72
2024/03/29 02:20:32;;;;;;;6.90;3.53;;;;;;;9.15;100.00;98828.22;10459926;28;20102;-74
2024/03/29 02:25:33;;;;;;;3.35;1.48;;;;;;;9.04;100.00;98841.50;10460568;28;20556;-73
2024/03/29 02:30:33;;;;;;;4.55;2.38;;;;;;;9.07;100.00;98846.44;10460520;28;20041;-71
2024/03/29 02:35:34;;;;;;;5.68;2.42;;;;;;;9.15;100.00;98839.00;10459500;28;20054;-73
2024/03/29 02:40:34;;;;;;;4.45;2.40;;;;;;;9.12;100.00;98834.09;10461263;28;20452;-75
2024/03/29 02:45:34;;;;;;;3.40;2.15;;;;;;;9.13;100.00;98819.53;10459838;28;20108;-74
2024/03/29 02:50:35;;;;;;;7.43;2.55;;;;;;;9.21;100.00;98819.16;10460702;28;20036;-72
2024/03/29 02:55:35;;;;;;;4.72;1.73;;;;;;;9.30;100.00;98833.94;10459995;28;20032;-74
2024/03/29 03:00:36;;;;;;;1.02;0.90;;;;;;;9.26;100.00;98846.28;10460020;28;20448;-72
2024/03/29 03:05:36;;;;;;;14.45;2.33;;;;;;;9.36;100.00;98845.66;10459786;28;20360;-73
2024/03/29 03:10:59;;;;;;;7.15;1.38;;;;;;;9.35;100.00;98846.69;10458672;28;20318;-73
2024/03/29 03:15:59;;;;;;;3.47;2.33;;;;;;;9.30;100.00;98847.44;10461046;28;20051;-73
2024/03/29 03:20:59;;;;;;;4.50;1.55;;;;;;;9.37;100.00;98850.00;10458185;28;20082;-73
2024/03/29 03:26:03;;;;;;;1.75;0.90;;;;;;;9.37;100.00;98868.91;10458057;28;20344;-72
2024/03/29 03:31:04;;;;;;;3.28;1.52;;;;;;;9.22;100.00;98853.19;10459112;28;20364;-71
2024/03/29 03:36:04;;;;;;;1.27;1.05;;;;;;;9.30;100.00;98861.75;10457109;28;20037;-73
2024/03/29 03:41:05;;;;;;;3.70;1.75;;;;;;;9.30;100.00;98853.66;10466393;28;20111;-71
2024/03/29 03:46:05;;;;;;;1.63;1.33;;;;;;;9.33;100.00;98857.75;10456080;28;20088;-73
2024/03/29 03:51:06;;;;;;;2.22;1.35;;;;;;;9.27;100.00;98858.72;10473801;28;20029;-73
2024/03/29 03:56:06;;;;;;;6.00;1.42;;;;;;;9.20;100.00;98866.13;10473746;28;20112;-72
2024/03/29 04:01:07;;;;;;;2.15;0.80;;;;;;;9.27;100.00;98878.44;10465945;28;20071;-72
2024/03/29 04:06:07;;;;;;;1.65;0.60;;;;;;;9.24;100.00;98881.59;10458086;28;20120;-74
2024/03/29 04:11:07;;;;;;;1.13;1.02;;;;;;;9.25;100.00;98877.88;10457159;28;20184;-72
2024/03/29 04:16:08;;;;;;;8.23;1.33;;;;;;;9.23;100.00;98882.69;10456774;28;20480;-72
2024/03/29 04:21:08;;;;;;;1.40;1.13;;;;;;;9.23;100.00;98888.06;10455108;28;20051;-74
2024/03/29 04:26:08;;;;;;;1.25;0.88;;;;;;;9.20;100.00;98890.44;10454895;28;20040;-74
2024/03/29 04:31:09;;;;;;;6.07;1.35;;;;;;;9.14;100.00;98888.69;10454819;28;20029;-74
2024/03/29 04:36:09;;;;;;;0.82;0.82;;;;;;;9.09;100.00;98892.06;10454809;28;20097;-74
2024/03/29 04:41:10;;;;;;;1.10;0.70;;;;;;;9.03;100.00;98877.66;10457443;28;20025;-74
2024/03/29 04:46:11;;;;;;;0.63;0.63;;;;;;;9.07;100.00;98889.63;10455304;28;20059;-73
2024/03/29 04:51:12;;;;;;;1.10;1.02;;;;;;;9.11;100.00;98894.56;10454883;28;20040;-74
2024/03/29 04:56:12;;;;;;;0.93;0.80;;;;;;;9.12;100.00;98907.00;10454146;28;20059;-73
2024/03/29 05:01:12;;;;;;;1.25;1.15;;;;;;;8.98;100.00;98903.72;10453471;28;20086;-73
2024/03/29 05:06:13;;;;;;;0.75;0.75;;;;;;;8.96;100.00;98900.44;10454241;28;20033;-73
2024/03/29 05:11:15;;;;;;;0.45;0.45;;;;;;;8.71;100.00;98893.41;10454557;28;20087;-73
2024/03/29 05:16:15;;;;;;;2.83;0.98;;;;;;;8.71;100.00;98912.31;10453754;28;20076;-73
2024/03/29 05:21:15;;;;;;;0.70;0.70;;;;;;;8.67;100.00;98907.59;10453665;28;20372;-73
2024/03/29 05:26:16;;;;;;;2.70;0.70;;;;;;;8.51;100.00;98934.19;10436701;28;20040;-73
2024/03/29 05:31:16;;;;;;;9.10;1.17;;;;;;;8.44;100.00;98929.97;10453993;28;20453;-73
2024/03/29 05:36:18;;;;;;;3.17;0.88;;;;;;;8.43;100.00;98934.56;10452805;28;20254;-73
2024/03/29 05:41:18;;;;;;;1.45;0.95;;;;;;;8.35;100.00;98946.44;10436172;28;20101;-73
2024/03/29 05:46:19;;;;;;;3.40;1.33;;;;;;;8.29;100.00;98946.56;10454595;28;20033;-73
2024/03/29 05:51:19;;;;;;;2.50;1.20;;;;;;;8.26;100.00;98965.88;10453768;28;20112;-73
2024/03/29 05:56:20;;;;;;;1.00;1.00;;;;;;;8.14;100.00;98977.47;10454106;28;20044;-73
2024/03/29 06:01:20;;;;;;;7.13;1.85;;;;;;;8.13;100.00;98962.31;10453059;28;20099;-73
2024/03/29 06:06:24;;;;;;;1.98;1.20;;;;;;;8.16;100.00;98974.53;10460483;28;20120;-73
2024/03/29 06:11:24;;;;;;;4.20;1.67;;;;;;;8.35;100.00;98976.13;10459515;28;20025;-73
2024/03/29 06:21:44;;;;;;;1.60;1.50;;;;;;;8.48;100.00;98991.31;10445292;28;20123;-73
2024/03/29 06:26:44;;;;;;;1.23;0.90;;;;;;;8.54;100.00;98997.66;10459845;28;20029;-74
2024/03/29 06:31:45;;;;;;;4.78;1.10;;;;;;;8.58;100.00;98990.75;10459247;28;20027;-74
2024/03/29 06:36:45;;;;;;;0.73;0.73;;;;;;;8.64;100.00;98986.31;10461845;28;20044;-73
2024/03/29 06:41:46;;;;;;;3.70;1.15;;;;;;;8.59;100.00;98981.63;10460801;28;20025;-73
2024/03/29 06:46:46;;;;;;;2.15;1.63;;;;;;;8.85;100.00;98978.47;10459547;28;20033;-73
2024/03/29 06:51:47;;;;;;;1.30;1.05;;;;;;;8.94;100.00;98992.47;10476043;28;20132;-74
2024/03/29 06:56:50;;;;;;;2.53;1.48;;;;;;;8.82;100.00;98995.13;10441438;28;20421;-73
2024/03/29 07:01:54;;;;;;;3.13;1.63;;;;;;;8.85;100.00;99000.06;10458953;28;20437;-73
2024/03/29 07:06:55;;;;;;;3.20;1.20;;;;;;;8.96;100.00;98998.44;10458898;28;20445;-73
2024/03/29 07:11:55;;;;;;;1.98;1.65;;;;;;;9.52;100.00;98986.22;10457019;28;20037;-73
2024/03/29 07:16:57;;;;;;;1.85;1.42;;;;;;;9.81;100.00;98991.66;10456906;28;20061;-73
2024/03/29 07:21:57;;;;;;;5.10;1.58;;;;;;;10.74;100.00;98988.81;10456873;28;20021;-76
2024/03/29 07:26:57;;;;;;;1.50;1.40;;;;;;;11.31;100.00;99002.97;10456682;28;20040;-76
2024/03/29 07:31:58;;;;;;;6.57;1.83;;;;;;;11.56;100.00;99005.22;10458068;28;20384;-74
2024/03/29 07:36:58;;;;;;;1.60;1.52;;;;;;;11.85;100.00;99008.63;10458349;28;20032;-74
2024/03/29 07:41:58;;;;;;;1.50;1.40;;;;;;;11.90;100.00;99024.16;10458666;28;20035;-74
2024/03/29 07:46:59;;;;;;;2.22;1.95;;;;;;;11.66;100.00;99020.00;10456093;28;20033;-74
2024/03/29 07:52:02;;;;;;;2.22;1.45;;;;;;;12.04;100.00;99011.84;10457784;28;20079;-73
2024/03/29 07:57:02;;;;;;;1.40;1.30;;;;;;;12.74;100.00;99025.59;10457081;28;20027;-74
2024/03/29 08:02:03;;;;;;;1.42;1.33;;;;;;;13.54;100.00;99014.81;10457222;28;20055;-74
2024/03/29 08:07:03;;;;;;;1.92;1.65;;;;;;;13.63;99.94;99019.50;10456526;28;20071;-74
2024/03/29 08:12:04;;;;;;;2.10;1.90;;;;;;;14.28;100.00;99038.28;10455569;28;20036;-73
2024/03/29 08:17:09;;;;;;;1.85;1.75;;;;;;;14.87;90.92;99003.28;10457962;28;20460;-72
2024/03/29 08:22:12;;;;;;;2.33;2.10;;;;;;;14.47;87.31;99027.72;10458630;28;20116;-72
2024/03/29 08:27:13;;;;;;;3.80;2.03;;;;;;;13.67;89.21;99034.19;10438848;28;20032;-73
2024/03/29 08:32:13;;;;;;;2.75;1.73;;;;;;;13.49;95.43;99045.50;10457862;28;20025;-67
2024/03/29 08:37:14;;;;;;;4.20;2.45;;;;;;;13.42;94.49;99044.91;10455723;28;20033;-70
2024/03/29 08:42:16;;;;;;;10.63;3.55;;;;;;;13.06;100.00;99058.22;10437463;28;20056;-71
2024/03/29 08:47:17;;;;;;;2.58;1.30;;;;;;;12.86;100.00;99068.88;10456154;28;20123;-69
2024/03/29 08:52:17;;;;;;;2.22;2.08;;;;;;;12.69;100.00;99069.81;10454492;28;20033;-70
2024/03/29 08:57:18;;;;;;;9.85;2.78;;;;;;;12.39;100.00;99080.34;10456083;28;20047;-69
2024/03/29 09:02:19;;;;;;;5.60;3.60;;;;;;;12.09;100.00;99066.16;10455680;28;20057;-73
2024/03/29 09:07:19;;;;;;;1.45;1.30;;;;;;;11.69;100.00;99069.13;10455531;28;20060;-71
2024/03/29 09:12:19;;;;;;;1.33;1.23;;;;;;;11.92;100.00;99075.41;10453488;28;20028;-67
2024/03/29 09:17:21;;;;;;;4.25;1.73;;;;;;;12.03;100.00;99083.44;10456040;28;20056;-71
2024/03/29 09:22:22;;;;;;;1.05;0.88;;;;;;;12.36;100.00;99103.38;10454391;28;20157;-70
2024/03/29 09:27:22;;;;;;;1.98;1.35;;;;;;;12.07;100.00;99095.44;10452894;28;20190;-75
2024/03/29 09:32:23;;;;;;;4.97;1.83;;;;;;;12.98;100.00;99094.00;10453721;28;20159;-69
2024/03/29 09:37:23;;;;;;;0.80;0.80;;;;;;;14.18;100.00;99101.66;10453410;28;20525;-69
2024/03/29 09:42:30;;;;;;;2.00;1.55;;;;;;;14.60;96.29;99111.66;10462621;28;20079;-72
2024/03/29 09:47:31;;;;;;;0.90;0.90;;;;;;;14.13;96.23;99102.44;10446796;28;20029;-70
2024/03/29 09:52:32;;;;;;;1.10;1.00;;;;;;;13.99;98.39;99109.47;10460742;28;20036;-70
2024/03/29 09:57:33;;;;;;;1.05;0.93;;;;;;;13.25;100.00;99121.19;10461014;28;20119;-69
2024/03/29 10:02:33;;;;;;;1.63;1.27;;;;;;;12.78;100.00;99116.34;10460725;28;20175;-72
2024/03/29 10:07:36;;;;;;;3.30;1.45;;;;;;;12.74;100.00;99098.94;10427307;28;20127;-70
2024/03/29 10:12:36;;;;;;;1.83;1.73;;;;;;;13.59;100.00;99108.13;10461092;28;20086;-71
2024/03/29 10:17:38;;;;;;;6.00;2.13;;;;;;;14.59;98.09;99099.94;10445070;28;20127;-72
2024/03/29 10:22:43;;;;;;;1.75;1.63;;;;;;;15.82;84.33;99102.75;10461006;28;20472;-71
2024/03/29 10:27:43;;;;;;;1.73;1.65;;;;;;;16.47;75.38;99124.69;10461031;28;20039;-72
2024/03/29 10:32:44;;;;;;;4.40;1.42;;;;;;;16.92;82.23;99106.44;10459096;28;20051;-71
2024/03/29 10:37:44;;;;;;;3.78;1.83;;;;;;;17.34;65.56;99111.34;10458086;28;20029;-69
2024/03/29 10:42:45;;;;;;;2.45;2.25;;;;;;;15.67;70.75;99122.72;10459882;28;20083;-70
2024/03/29 10:47:46;;;;;;;2.00;1.90;;;;;;;14.58;78.88;99136.47;10458521;28;20033;-70
2024/03/29 10:52:46;;;;;;;3.40;2.75;;;;;;;14.23;82.26;99128.94;10458768;28;20491;-70
2024/03/29 10:57:46;;;;;;;1.83;1.70;;;;;;;14.50;82.20;99166.88;10442535;28;20036;-70
2024/03/29 11:02:50;;;;;;;2.22;2.03;;;;;;;15.75;81.71;99165.00;10441972;28;20048;-70
2024/03/29 11:07:51;;;;;;;1.80;1.70;;;;;;;16.37;72.33;99157.50;10459830;28;20052;-70
2024/03/29 11:13:12;;;;;;;2.83;1.95;;;;;;;16.58;72.79;99155.53;10457078;28;20080;-70
2024/03/29 11:18:13;;;;;;;2.20;2.10;;;;;;;16.95;63.95;99166.84;10459135;28;20041;-70
2024/03/29 11:23:14;;;;;;;2.45;2.25;;;;;;;16.88;67.76;99165.50;10457725;28;20469;-70
2024/03/29 11:28:21;;;;;;;2.20;2.00;;;;;;;17.17;64.08;99171.13;10456794;28;20116;-70
2024/03/29 11:33:48;;;;;;;1.95;1.85;;;;;;;17.07;63.76;99166.53;10457993;28;20395;-70
2024/03/29 11:38:49;;;;;;;2.38;2.28;;;;;;;16.41;65.71;99158.59;10456198;28;20033;-70
2024/03/29 11:43:55;;;;;;;2.83;2.63;;;;;;;16.38;62.94;99170.91;10456423;28;20039;-69
2024/03/29 11:48:56;;;;;;;5.43;3.58;;;;;;;17.12;65.09;99173.88;10456448;28;20043;-70
2024/03/29 11:53:57;;;;;;;4.03;2.85;;;;;;;17.62;61.28;99155.47;10439453;28;20029;-70
2024/03/29 11:58:59;;;;;;;2.15;2.05;;;;;;;18.20;61.86;99176.56;10455777;28;20021;-71
2024/03/29 12:04:00;;;;;;;2.63;1.95;;;;;;;18.09;58.94;99189.53;10388591;28;20170;-72
2024/03/29 12:09:01;;;;;;;4.15;3.05;;;;;;;18.40;57.00;99187.31;10455876;28;20104;-71
2024/03/29 12:14:02;;;;;;;3.75;2.25;;;;;;;19.12;56.16;99165.31;10454401;28;20053;-71
2024/03/29 12:19:02;;;;;;;4.95;2.63;;;;;;;18.81;55.58;99162.19;10455866;28;20048;-70
2024/03/29 12:24:03;;;;;;;4.10;2.55;;;;;;;18.32;56.08;99180.56;10456356;28;20059;-75
2024/03/29 12:29:03;;;;;;;1.60;1.50;;;;;;;17.72;56.84;99168.25;10454402;28;20049;-70
2024/03/29 12:34:04;;;;;;;1.65;1.55;;;;;;;16.77;59.24;99172.16;10455695;28;20032;-70
2024/03/29 12:39:05;;;;;;;1.45;1.45;;;;;;;16.74;61.06;99176.22;10454031;28;20064;-70
2024/03/29 12:44:06;;;;;;;2.35;2.15;;;;;;;16.10;62.26;99179.69;10455461;28;20021;-71
2024/03/29 12:49:07;;;;;;;6.93;2.10;;;;;;;16.36;64.25;99162.16;10455945;28;20040;-70
2024/03/29 12:54:07;;;;;;;1.85;1.40;;;;;;;16.53;61.53;99145.44;10437282;28;20135;-70
2024/03/29 12:59:08;;;;;;;3.13;2.47;;;;;;;17.77;57.84;99174.53;10422141;28;20025;-70
2024/03/29 13:04:09;;;;;;;2.10;1.92;;;;;;;18.05;55.97;99186.56;10453461;28;20029;-70
2024/03/29 13:09:09;;;;;;;7.20;2.22;;;;;;;18.35;55.74;99181.91;10454216;28;20090;-70
2024/03/29 13:14:09;;;;;;;3.35;2.17;;;;;;;17.27;55.58;99170.22;10460121;28;20052;-70
2024/03/29 13:19:10;;;;;;;1.85;1.75;;;;;;;17.74;57.18;99190.66;10463329;28;20346;-72
2024/03/29 13:24:10;;;;;;;3.03;1.98;;;;;;;17.90;52.24;99203.16;10463518;28;20029;-72
2024/03/29 13:29:13;;;;;;;2.10;1.88;;;;;;;17.58;52.70;99204.47;10463035;28;20462;-71
2024/03/29 13:34:13;;;;;;;2.28;2.08;;;;;;;16.42;57.64;99223.06;10463292;28;20029;-72
2024/03/29 13:39:15;;;;;;;1.98;1.88;;;;;;;16.48;60.95;99208.28;10444471;28;20033;-73
2024/03/29 13:44:17;;;;;;;2.15;1.83;;;;;;;16.69;58.06;99220.81;10461185;28;20029;-73
2024/03/29 13:49:20;;;;;;;2.50;2.33;;;;;;;16.57;59.58;99228.50;10461659;28;20384;-72
2024/03/29 13:54:21;;;;;;;2.55;1.92;;;;;;;16.77;61.68;99215.88;10462275;28;20079;-71
2024/03/29 13:59:21;;;;;;;5.60;2.50;;;;;;;16.84;58.79;99230.88;10461997;28;20110;-70
2024/03/29 14:04:22;;;;;;;2.65;2.55;;;;;;;16.45;59.07;99204.19;10461121;28;20028;-74
2024/03/29 14:09:22;;;;;;;2.38;2.22;;;;;;;16.12;59.75;99213.84;10444044;28;20021;-72
2024/03/29 14:14:23;;;;;;;2.08;1.95;;;;;;;15.96;60.74;99210.31;10461310;28;20469;-71
2024/03/29 14:19:24;;;;;;;2.42;2.00;;;;;;;16.02;58.94;99231.06;10461696;28;20120;-71
2024/03/29 14:24:24;;;;;;;2.20;1.77;;;;;;;16.34;58.62;99219.00;10442566;28;20033;-72
2024/03/29 14:29:25;;;;;;;1.65;1.55;;;;;;;16.24;59.37;99225.28;10459606;28;20461;-72
2024/03/29 14:34:26;;;;;;;2.00;1.90;;;;;;;16.46;59.99;99227.72;10461649;28;20083;-71
2024/03/29 14:39:27;;;;;;;3.55;2.00;;;;;;;16.68;58.93;99229.25;10459063;28;20460;-72
2024/03/29 14:44:28;;;;;;;1.90;1.73;;;;;;;16.84;57.44;99228.13;10460354;28;20033;-71
2024/03/29 14:49:28;;;;;;;1.10;1.10;;;;;;;16.21;55.21;99250.44;10460229;28;20033;-71
2024/03/29 14:54:29;;;;;;;1.13;1.13;;;;;;;15.99;55.92;99247.97;10461054;28;20033;-72
2024/03/29 14:59:30;;;;;;;0.90;0.90;;;;;;;15.88;55.93;99221.75;10460148;28;20033;-71
2024/03/29 15:04:30;;;;;;;1.45;1.35;;;;;;;15.66;55.39;99234.81;10460904;28;20029;-72
2024/03/29 15:09:30;;;;;;;2.95;1.13;;;;;;;15.46;55.94;99241.09;10460506;28;20033;-70
2024/03/29 15:14:31;;;;;;;3.05;1.70;;;;;;;15.22;55.62;99240.75;10459115;28;20057;-72
2024/03/29 15:19:33;;;;;;;1.30;1.17;;;;;;;15.27;55.70;99238.03;10441531;28;20186;-71
2024/03/29 15:24:33;;;;;;;1.33;1.25;;;;;;;15.11;56.89;99229.00;10458773;28;20029;-70
2024/03/29 15:29:33;;;;;;;1.02;0.93;;;;;;;15.10;57.40;99241.00;10458386;28;20059;-72
2024/03/29 15:34:34;;;;;;;2.58;1.58;;;;;;;15.03;57.86;99233.06;10441875;28;20029;-71
2024/03/29 15:39:34;;;;;;;1.60;1.13;;;;;;;15.01;57.72;99242.59;10461046;28;20055;-71
2024/03/29 15:44:35;;;;;;;1.48;1.38;;;;;;;15.05;59.51;99252.69;10460134;28;20112;-71
2024/03/29 15:49:35;;;;;;;1.27;1.17;;;;;;;15.13;58.35;99258.75;10457698;28;20028;-70
2024/03/29 15:54:35;;;;;;;3.88;2.20;;;;;;;14.88;59.72;99257.53;10457772;28;20028;-70
2024/03/29 15:59:36;;;;;;;1.90;1.15;;;;;;;14.79;60.91;99254.50;10456292;28;20460;-70
2024/03/29 16:04:36;;;;;;;2.22;2.05;;;;;;;14.69;62.07;99272.72;10472441;28;20032;-70
2024/03/29 16:09:37;;;;;;;2.20;2.05;;;;;;;14.79;63.29;99284.47;10457488;28;20037;-70
2024/03/29 16:14:37;;;;;;;1.42;1.08;;;;;;;14.71;61.67;99292.31;10457520;28;20191;-71
2024/03/29 16:19:38;;;;;;;0.88;0.88;;;;;;;14.46;61.71;99288.34;10456091;28;20139;-70
2024/03/29 16:24:38;;;;;;;1.25;1.25;;;;;;;14.40;63.10;99279.31;10457238;28;20069;-70
2024/03/29 16:29:39;;;;;;;1.38;1.23;;;;;;;14.21;63.33;99285.44;10455389;28;20167;-70
2024/03/29 16:34:39;;;;;;;1.55;1.45;;;;;;;14.13;64.26;99278.56;10456174;28;20400;-70
2024/03/29 16:39:40;;;;;;;1.40;1.05;;;;;;;14.19;65.32;99285.69;10454833;28;20120;-70
2024/03/29 16:44:40;;;;;;;6.65;1.92;;;;;;;14.12;66.82;99291.38;10455060;28;20112;-70
2024/03/29 16:49:40;;;;;;;1.50;1.40;;;;;;;13.92;69.89;99292.03;10455192;28;20055;-70
2024/03/29 16:54:41;;;;;;;2.10;1.73;;;;;;;13.83;72.09;99288.13;10456779;28;20032;-70
2024/03/29 16:59:43;;;;;;;2.40;1.65;;;;;;;13.72;76.14;99280.97;10455387;28;20033;-70
2024/03/29 17:04:47;;;;;;;5.30;1.83;;;;;;;13.43;81.83;99281.22;10453925;28;20487;-70
2024/03/29 17:09:48;;;;;;;1.70;1.50;;;;;;;13.36;81.43;99285.19;10454009;28;20025;-70
2024/03/29 17:14:48;;;;;;;1.67;1.50;;;;;;;13.27;81.39;99279.38;10455366;28;20500;-70
2024/03/29 17:19:48;;;;;;;1.48;1.40;;;;;;;13.24;81.06;99294.34;10456536;28;20120;-70
2024/03/29 17:24:49;;;;;;;1.92;1.83;;;;;;;13.11;84.29;99291.13;10454050;28;20029;-70
2024/03/29 17:29:50;;;;;;;2.80;1.67;;;;;;;13.07;86.47;99304.41;10455093;28;20064;-70
2024/03/29 17:34:50;;;;;;;4.50;2.45;;;;;;;13.12;85.60;99312.63;10456139;28;20040;-70
2024/03/29 17:39:51;;;;;;;1.77;1.67;;;;;;;12.97;90.54;99315.97;10436342;28;20040;-70
2024/03/29 17:44:51;;;;;;;2.60;2.00;;;;;;;12.95;90.97;99309.16;10453849;28;20028;-70
2024/03/29 17:49:51;;;;;;;1.98;1.77;;;;;;;12.90;91.65;99301.75;10452989;28;20036;-70
2024/03/29 17:54:52;;;;;;;5.40;2.05;;;;;;;12.78;94.14;99288.28;10454318;28;20029;-70
2024/03/29 17:59:52;;;;;;;3.95;1.92;;;;;;;12.78;92.87;99296.44;10455625;28;20029;-70
2024/03/29 18:04:53;;;;;;;1.70;1.60;;;;;;;12.74;93.14;99300.72;10460392;28;20560;-70
2024/03/29 18:09:53;;;;;;;2.53;2.33;;;;;;;12.71;92.97;99303.13;10443771;28;20122;-70
2024/03/29 18:14:54;;;;;;;3.90;1.52;;;;;;;12.68;92.87;99314.50;10460387;28;20140;-70
2024/03/29 18:19:54;;;;;;;2.35;1.80;;;;;;;12.68;93.20;99315.31;10460982;28;20033;-70
2024/03/29 18:24:55;;;;;;;1.45;1.35;;;;;;;12.64;92.20;99306.03;10460472;28;20041;-70
2024/03/29 18:29:55;;;;;;;1.52;1.23;;;;;;;12.64;92.71;99316.91;10443823;28;20037;-70
2024/03/29 18:34:56;;;;;;;6.53;1.85;;;;;;;12.66;92.36;99313.91;10460930;28;20064;-70
2024/03/29 18:39:56;;;;;;;1.25;1.15;;;;;;;12.59;93.88;99319.53;10444386;28;20032;-70
2024/03/29 18:44:56;;;;;;;1.73;1.27;;;;;;;12.56;94.02;99320.03;10461267;28;20443;-70
2024/03/29 18:49:57;;;;;;;3.10;1.75;;;;;;;12.56;92.40;99331.69;10460031;28;20055;-70
2024/03/29 18:54:58;;;;;;;1.30;1.20;;;;;;;12.54;94.77;99338.47;10442106;28;20029;-70
2024/03/29 18:59:58;;;;;;;1.13;1.13;;;;;;;12.61;94.65;99339.13;10458006;28;20471;-70
2024/03/29 19:04:59;;;;;;;3.67;1.58;;;;;;;12.58;96.22;99334.19;10426118;28;20029;-70
2024/03/29 19:10:00;;;;;;;3.10;1.48;;;;;;;12.57;96.76;99329.81;10441436;28;20087;-70
2024/03/29 19:15:05;;;;;;;2.17;1.38;;;;;;;12.56;97.47;99348.00;10442556;28;20057;-70
2024/03/29 19:20:06;;;;;;;1.30;1.20;;;;;;;12.61;96.46;99360.84;10459335;28;20124;-70
2024/03/29 19:25:07;;;;;;;1.73;1.63;;;;;;;12.52;97.88;99368.56;10457582;28;20037;-70
2024/03/29 19:30:08;;;;;;;2.45;1.45;;;;;;;12.53;97.76;99381.06;10457903;28;20029;-70
2024/03/29 19:35:08;;;;;;;1.02;1.02;;;;;;;12.43;99.90;99380.91;10440525;28;20344;-70
2024/03/29 19:40:09;;;;;;;1.50;1.40;;;;;;;12.43;99.83;99391.78;10440154;28;20029;-70
2024/03/29 19:45:10;;;;;;;2.70;1.58;;;;;;;12.28;100.00;99395.06;10458232;28;20497;-70
2024/03/29 19:50:10;;;;;;;4.63;1.58;;;;;;;12.20;100.00;99397.38;10439458;28;20067;-70
2024/03/29 19:55:10;;;;;;;1.60;1.50;;;;;;;12.14;100.00;99399.16;10457636;28;20033;-71
2024/03/29 20:00:11;;;;;;;5.03;2.10;;;;;;;12.10;100.00;99398.00;10456764;28;20120;-71
2024/03/29 20:05:12;;;;;;;5.35;1.70;;;;;;;12.13;100.00;99402.13;10457087;28;20463;-71
2024/03/29 20:10:12;;;;;;;2.15;1.65;;;;;;;12.16;100.00;99413.31;10439440;28;20115;-70
2024/03/29 20:15:13;;;;;;;2.63;2.20;;;;;;;12.22;100.00;99411.50;10439180;28;20041;-71
2024/03/29 20:20:13;;;;;;;2.72;1.60;;;;;;;12.11;100.00;99413.22;10456638;28;20044;-71
2024/03/29 20:25:14;;;;;;;2.10;1.90;;;;;;;12.20;100.00;99425.31;10422336;28;20070;-70
2024/03/29 20:30:14;;;;;;;2.60;2.42;;;;;;;12.15;100.00;99419.78;10455885;28;20033;-70
2024/03/29 20:35:15;;;;;;;2.05;1.95;;;;;;;12.09;100.00;99413.47;10438304;28;20047;-71
2024/03/29 20:40:15;;;;;;;2.58;2.28;;;;;;;12.12;100.00;99428.41;10438322;28;20051;-70
2024/03/29 20:45:16;;;;;;;2.75;2.55;;;;;;;12.13;100.00;99429.25;10456879;28;20048;-70
2024/03/29 20:50:16;;;;;;;2.45;1.80;;;;;;;12.12;100.00;99433.84;10455446;28;20043;-69
2024/03/29 20:55:17;;;;;;;2.88;1.77;;;;;;;12.14;100.00;99434.44;10456470;28;20041;-70
2024/03/29 21:00:17;;;;;;;1.73;1.63;;;;;;;12.20;100.00;99441.59;10438539;28;20112;-70
2024/03/29 21:05:37;;;;;;;2.85;2.28;;;;;;;12.12;100.00;99431.13;10454353;28;20071;-71
2024/03/29 21:10:38;;;;;;;1.90;1.77;;;;;;;12.13;100.00;99445.53;10456604;28;20029;-71
2024/03/29 21:15:38;;;;;;;2.03;1.92;;;;;;;12.09;100.00;99451.47;10437826;28;20535;-70
2024/03/29 21:20:39;;;;;;;4.13;2.92;;;;;;;12.11;100.00;99456.63;10420976;28;20032;-70
2024/03/29 21:25:39;;;;;;;4.45;2.13;;;;;;;12.10;100.00;99453.09;10470312;28;20056;-70
2024/03/29 21:30:40;;;;;;;2.35;1.88;;;;;;;12.12;100.00;99452.00;10436581;28;20029;-70
2024/03/29 21:35:40;;;;;;;2.75;2.22;;;;;;;12.11;100.00;99464.78;10458914;28;20464;-70
2024/03/29 21:40:40;;;;;;;5.57;2.55;;;;;;;12.14;100.00;99483.28;10461489;28;20033;-70
2024/03/29 21:45:41;;;;;;;6.45;2.17;;;;;;;12.17;100.00;99507.22;10463128;28;20113;-70
2024/03/29 21:50:41;;;;;;;4.18;2.47;;;;;;;12.18;100.00;99492.56;10461707;28;20029;-70
2024/03/29 21:55:42;;;;;;;2.90;2.72;;;;;;;12.19;100.00;99512.38;10444896;28;20066;-70
2024/03/29 22:00:43;;;;;;;2.60;2.40;;;;;;;12.28;100.00;99502.78;10460652;28;20060;-70
2024/03/29 22:05:43;;;;;;;3.15;2.70;;;;;;;12.25;100.00;99512.28;10444179;28;20029;-70
2024/03/29 22:10:44;;;;;;;5.95;2.88;;;;;;;12.30;100.00;99509.63;10461795;28;20449;-70
2024/03/29 22:15:44;;;;;;;9.80;3.15;;;;;;;12.27;100.00;99520.97;10461993;28;20045;-70
2024/03/29 22:20:44;;;;;;;4.75;2.88;;;;;;;12.24;100.00;99512.50;10461437;28;20318;-69
2024/03/29 22:25:45;;;;;;;8.68;3.75;;;;;;;12.23;100.00;99517.09;10461087;28;20048;-69
2024/03/29 22:30:47;;;;;;;7.13;2.97;;;;;;;12.16;100.00;99516.44;10461069;28;20055;-70
2024/03/29 22:35:47;;;;;;;3.35;3.05;;;;;;;12.20;100.00;99524.91;10461290;28;20037;-70
2024/03/29 22:40:48;;;;;;;7.13;3.65;;;;;;;12.18;100.00;99533.28;10461424;28;20021;-70
2024/03/29 22:45:48;;;;;;;4.28;3.42;;;;;;;12.27;100.00;99539.97;10459766;28;20026;-70
2024/03/29 22:50:49;;;;;;;4.43;2.10;;;;;;;12.37;100.00;99536.63;10460025;28;20086;-70
2024/03/29 22:55:49;;;;;;;5.32;3.05;;;;;;;12.29;100.00;99529.72;10460518;28;20051;-70
2024/03/29 23:00:50;;;;;;;3.13;2.40;;;;;;;12.29;100.00;99528.91;10459783;28;20433;-70
2024/03/29 23:05:50;;;;;;;3.22;2.78;;;;;;;12.32;100.00;99537.38;10457786;28;20083;-70
2024/03/29 23:10:54;;;;;;;3.47;1.80;;;;;;;12.31;100.00;99530.28;10459505;28;20036;-71
2024/03/29 23:15:57;;;;;;;2.38;1.52;;;;;;;12.36;100.00;99542.31;10459485;28;20049;-70
2024/03/29 23:20:58;;;;;;;1.42;1.35;;;;;;;12.34;100.00;99545.25;10457833;28;20044;-70